sensor_id;sensor_type;location;lat;lon;timestamp;P1;durP1;ratioP1;P2;durP2;ratioP2
45522;SDS011;31254;51.680;5.394;2023-09-07T00:02:05;5.32;;;4.10;;
45522;SDS011;31254;51.680;5.394;2023-09-07T00:04:32;7.68;;;3.80;;
45522;SDS011;31254;51.680;5.394;2023-09-07T00:06:59;5.72;;;3.53;;
45522;SDS011;31254;51.680;5.394;2023-09-07T00:09:26;4.75;;;3.63;;
45522;SDS011;31254;51.680;5.394;2023-09-07T00:11:53;6.75;;;4.25;;
45522;SDS011;31254;51.680;5.394;2023-09-07T00:14:20;5.63;;;3.90;;
45522;SDS011;31254;51.680;5.394;2023-09-07T00:16:46;5.65;;;4.20;;
45522;SDS011;31254;51.680;5.394;2023-09-07T00:19:13;5.90;;;3.78;;
45522;SDS011;31254;51.680;5.394;2023-09-07T00:21:40;6.30;;;3.63;;
45522;SDS011;31254;51.680;5.394;2023-09-07T00:24:07;6.75;;;3.83;;
45522;SDS011;31254;51.680;5.394;2023-09-07T00:26:33;4.63;;;3.70;;
45522;SDS011;31254;51.680;5.394;2023-09-07T00:29:00;9.48;;;4.20;;
45522;SDS011;31254;51.680;5.394;2023-09-07T00:31:26;8.50;;;4.50;;
45522;SDS011;31254;51.680;5.394;2023-09-07T00:33:53;5.95;;;3.97;;
45522;SDS011;31254;51.680;5.394;2023-09-07T00:36:20;5.95;;;4.18;;
45522;SDS011;31254;51.680;5.394;2023-09-07T00:38:46;6.75;;;3.67;;
45522;SDS011;31254;51.680;5.394;2023-09-07T00:41:13;5.55;;;4.20;;
45522;SDS011;31254;51.680;5.394;2023-09-07T00:43:40;5.68;;;4.25;;
45522;SDS011;31254;51.680;5.394;2023-09-07T00:46:07;5.07;;;4.05;;
45522;SDS011;31254;51.680;5.394;2023-09-07T00:48:35;6.50;;;3.40;;
45522;SDS011;31254;51.680;5.394;2023-09-07T00:51:01;5.13;;;3.72;;
45522;SDS011;31254;51.680;5.394;2023-09-07T00:53:28;6.10;;;4.32;;
45522;SDS011;31254;51.680;5.394;2023-09-07T00:55:56;6.03;;;3.88;;
45522;SDS011;31254;51.680;5.394;2023-09-07T00:58:23;7.13;;;4.10;;
45522;SDS011;31254;51.680;5.394;2023-09-07T01:00:50;6.05;;;4.10;;
45522;SDS011;31254;51.680;5.394;2023-09-07T01:03:17;5.70;;;4.18;;
45522;SDS011;31254;51.680;5.394;2023-09-07T01:05:51;6.18;;;4.30;;
45522;SDS011;31254;51.680;5.394;2023-09-07T01:08:23;6.45;;;3.85;;
45522;SDS011;31254;51.680;5.394;2023-09-07T01:10:52;8.32;;;4.13;;
45522;SDS011;31254;51.680;5.394;2023-09-07T01:13:19;6.95;;;3.97;;
45522;SDS011;31254;51.680;5.394;2023-09-07T01:15:46;6.60;;;4.15;;
45522;SDS011;31254;51.680;5.394;2023-09-07T01:18:14;5.32;;;3.90;;
45522;SDS011;31254;51.680;5.394;2023-09-07T01:20:50;5.95;;;3.70;;
45522;SDS011;31254;51.680;5.394;2023-09-07T01:23:18;5.10;;;4.07;;
45522;SDS011;31254;51.680;5.394;2023-09-07T01:25:46;5.65;;;3.67;;
45522;SDS011;31254;51.680;5.394;2023-09-07T01:28:15;5.47;;;3.83;;
45522;SDS011;31254;51.680;5.394;2023-09-07T01:30:41;5.15;;;3.95;;
45522;SDS011;31254;51.680;5.394;2023-09-07T01:33:08;6.20;;;3.95;;
45522;SDS011;31254;51.680;5.394;2023-09-07T01:35:35;6.53;;;4.28;;
45522;SDS011;31254;51.680;5.394;2023-09-07T01:38:03;7.13;;;4.22;;
45522;SDS011;31254;51.680;5.394;2023-09-07T01:40:30;4.78;;;3.72;;
45522;SDS011;31254;51.680;5.394;2023-09-07T01:42:56;5.43;;;3.70;;
45522;SDS011;31254;51.680;5.394;2023-09-07T01:45:23;7.57;;;4.28;;
45522;SDS011;31254;51.680;5.394;2023-09-07T01:47:50;5.60;;;3.80;;
45522;SDS011;31254;51.680;5.394;2023-09-07T01:50:17;5.43;;;3.65;;
45522;SDS011;31254;51.680;5.394;2023-09-07T01:52:47;6.70;;;4.22;;
45522;SDS011;31254;51.680;5.394;2023-09-07T01:55:15;6.15;;;3.78;;
45522;SDS011;31254;51.680;5.394;2023-09-07T01:57:42;4.38;;;3.78;;
45522;SDS011;31254;51.680;5.394;2023-09-07T02:00:09;5.32;;;3.67;;
45522;SDS011;31254;51.680;5.394;2023-09-07T02:02:36;5.88;;;3.63;;
45522;SDS011;31254;51.680;5.394;2023-09-07T02:05:03;4.82;;;3.70;;
45522;SDS011;31254;51.680;5.394;2023-09-07T02:07:30;5.93;;;3.78;;
45522;SDS011;31254;51.680;5.394;2023-09-07T02:09:56;4.65;;;3.75;;
45522;SDS011;31254;51.680;5.394;2023-09-07T02:12:23;5.85;;;3.58;;
45522;SDS011;31254;51.680;5.394;2023-09-07T02:14:50;8.20;;;3.97;;
45522;SDS011;31254;51.680;5.394;2023-09-07T02:17:16;5.80;;;3.83;;
45522;SDS011;31254;51.680;5.394;2023-09-07T02:19:44;5.30;;;3.40;;
45522;SDS011;31254;51.680;5.394;2023-09-07T02:22:11;7.47;;;4.00;;
45522;SDS011;31254;51.680;5.394;2023-09-07T02:24:38;4.97;;;3.50;;
45522;SDS011;31254;51.680;5.394;2023-09-07T02:27:04;7.22;;;3.30;;
45522;SDS011;31254;51.680;5.394;2023-09-07T02:29:31;6.20;;;3.92;;
45522;SDS011;31254;51.680;5.394;2023-09-07T02:31:58;4.80;;;3.72;;
45522;SDS011;31254;51.680;5.394;2023-09-07T02:34:24;4.45;;;3.60;;
45522;SDS011;31254;51.680;5.394;2023-09-07T02:36:51;5.10;;;3.70;;
45522;SDS011;31254;51.680;5.394;2023-09-07T02:39:18;6.13;;;3.97;;
45522;SDS011;31254;51.680;5.394;2023-09-07T02:41:45;4.47;;;3.40;;
45522;SDS011;31254;51.680;5.394;2023-09-07T02:44:12;5.82;;;3.97;;
45522;SDS011;31254;51.680;5.394;2023-09-07T02:46:39;4.32;;;3.45;;
45522;SDS011;31254;51.680;5.394;2023-09-07T02:49:05;6.32;;;3.85;;
45522;SDS011;31254;51.680;5.394;2023-09-07T02:51:32;5.00;;;3.50;;
45522;SDS011;31254;51.680;5.394;2023-09-07T02:53:59;5.15;;;3.90;;
45522;SDS011;31254;51.680;5.394;2023-09-07T02:56:27;4.63;;;3.80;;
45522;SDS011;31254;51.680;5.394;2023-09-07T02:58:54;7.13;;;4.13;;
45522;SDS011;31254;51.680;5.394;2023-09-07T03:01:21;5.45;;;3.92;;
45522;SDS011;31254;51.680;5.394;2023-09-07T03:03:48;6.55;;;3.90;;
45522;SDS011;31254;51.680;5.394;2023-09-07T03:06:15;5.65;;;3.95;;
45522;SDS011;31254;51.680;5.394;2023-09-07T03:08:43;5.93;;;3.90;;
45522;SDS011;31254;51.680;5.394;2023-09-07T03:11:10;7.35;;;4.00;;
45522;SDS011;31254;51.680;5.394;2023-09-07T03:13:37;5.28;;;4.07;;
45522;SDS011;31254;51.680;5.394;2023-09-07T03:16:04;5.65;;;3.97;;
45522;SDS011;31254;51.680;5.394;2023-09-07T03:18:31;5.80;;;4.20;;
45522;SDS011;31254;51.680;5.394;2023-09-07T03:20:59;5.70;;;4.07;;
45522;SDS011;31254;51.680;5.394;2023-09-07T03:23:31;5.05;;;4.00;;
45522;SDS011;31254;51.680;5.394;2023-09-07T03:25:59;4.93;;;3.65;;
45522;SDS011;31254;51.680;5.394;2023-09-07T03:28:26;6.85;;;4.40;;
45522;SDS011;31254;51.680;5.394;2023-09-07T03:30:53;5.47;;;4.25;;
45522;SDS011;31254;51.680;5.394;2023-09-07T03:33:21;5.95;;;4.43;;
45522;SDS011;31254;51.680;5.394;2023-09-07T03:35:49;5.70;;;4.13;;
45522;SDS011;31254;51.680;5.394;2023-09-07T03:38:15;6.95;;;4.53;;
45522;SDS011;31254;51.680;5.394;2023-09-07T03:40:42;5.32;;;3.95;;
45522;SDS011;31254;51.680;5.394;2023-09-07T03:43:09;5.63;;;4.50;;
45522;SDS011;31254;51.680;5.394;2023-09-07T03:45:36;6.93;;;4.30;;
45522;SDS011;31254;51.680;5.394;2023-09-07T03:48:03;6.60;;;4.95;;
45522;SDS011;31254;51.680;5.394;2023-09-07T03:50:30;5.80;;;4.68;;
45522;SDS011;31254;51.680;5.394;2023-09-07T03:52:56;5.55;;;4.50;;
45522;SDS011;31254;51.680;5.394;2023-09-07T03:55:23;5.45;;;4.38;;
45522;SDS011;31254;51.680;5.394;2023-09-07T03:57:49;6.32;;;4.60;;
45522;SDS011;31254;51.680;5.394;2023-09-07T04:00:16;7.70;;;4.30;;
45522;SDS011;31254;51.680;5.394;2023-09-07T04:02:44;7.22;;;4.70;;
45522;SDS011;31254;51.680;5.394;2023-09-07T04:05:11;5.95;;;4.38;;
45522;SDS011;31254;51.680;5.394;2023-09-07T04:07:38;6.65;;;4.40;;
45522;SDS011;31254;51.680;5.394;2023-09-07T04:10:05;7.28;;;4.43;;
45522;SDS011;31254;51.680;5.394;2023-09-07T04:12:32;6.00;;;4.78;;
45522;SDS011;31254;51.680;5.394;2023-09-07T04:15:01;5.68;;;4.45;;
45522;SDS011;31254;51.680;5.394;2023-09-07T04:17:28;7.70;;;4.25;;
45522;SDS011;31254;51.680;5.394;2023-09-07T04:19:55;8.05;;;4.82;;
45522;SDS011;31254;51.680;5.394;2023-09-07T04:22:22;5.25;;;4.50;;
45522;SDS011;31254;51.680;5.394;2023-09-07T04:24:48;6.40;;;4.80;;
45522;SDS011;31254;51.680;5.394;2023-09-07T04:27:16;7.38;;;4.97;;
45522;SDS011;31254;51.680;5.394;2023-09-07T04:29:42;7.30;;;4.45;;
45522;SDS011;31254;51.680;5.394;2023-09-07T04:32:09;5.50;;;4.55;;
45522;SDS011;31254;51.680;5.394;2023-09-07T04:34:36;6.13;;;4.70;;
45522;SDS011;31254;51.680;5.394;2023-09-07T04:37:02;10.57;;;5.25;;
45522;SDS011;31254;51.680;5.394;2023-09-07T04:39:29;6.45;;;4.75;;
45522;SDS011;31254;51.680;5.394;2023-09-07T04:41:56;6.72;;;4.80;;
45522;SDS011;31254;51.680;5.394;2023-09-07T04:44:22;5.95;;;4.20;;
45522;SDS011;31254;51.680;5.394;2023-09-07T04:46:49;6.20;;;4.75;;
45522;SDS011;31254;51.680;5.394;2023-09-07T04:49:18;8.32;;;4.88;;
45522;SDS011;31254;51.680;5.394;2023-09-07T05:18:13;7.15;;;5.10;;
45522;SDS011;31254;51.680;5.394;2023-09-07T05:21:31;8.05;;;4.88;;
45522;SDS011;31254;51.680;5.394;2023-09-07T05:23:58;10.25;;;5.47;;
45522;SDS011;31254;51.680;5.394;2023-09-07T05:26:25;7.35;;;5.03;;
45522;SDS011;31254;51.680;5.394;2023-09-07T05:28:51;8.30;;;4.88;;
45522;SDS011;31254;51.680;5.394;2023-09-07T05:31:18;12.07;;;5.30;;
45522;SDS011;31254;51.680;5.394;2023-09-07T05:33:45;7.25;;;5.30;;
45522;SDS011;31254;51.680;5.394;2023-09-07T05:36:11;12.90;;;5.35;;
45522;SDS011;31254;51.680;5.394;2023-09-07T05:38:38;6.40;;;5.28;;
45522;SDS011;31254;51.680;5.394;2023-09-07T05:41:05;6.47;;;5.47;;
45522;SDS011;31254;51.680;5.394;2023-09-07T05:43:33;10.48;;;5.25;;
45522;SDS011;31254;51.680;5.394;2023-09-07T05:45:59;9.43;;;5.28;;
45522;SDS011;31254;51.680;5.394;2023-09-07T05:48:26;7.63;;;5.40;;
45522;SDS011;31254;51.680;5.394;2023-09-07T05:50:52;8.07;;;5.50;;
45522;SDS011;31254;51.680;5.394;2023-09-07T05:53:19;9.65;;;5.32;;
45522;SDS011;31254;51.680;5.394;2023-09-07T05:55:50;9.80;;;5.15;;
45522;SDS011;31254;51.680;5.394;2023-09-07T05:58:17;5.78;;;4.57;;
45522;SDS011;31254;51.680;5.394;2023-09-07T06:00:44;10.43;;;5.40;;
45522;SDS011;31254;51.680;5.394;2023-09-07T06:03:10;8.05;;;5.28;;
45522;SDS011;31254;51.680;5.394;2023-09-07T06:05:37;8.40;;;5.28;;
45522;SDS011;31254;51.680;5.394;2023-09-07T06:08:05;8.45;;;5.28;;
45522;SDS011;31254;51.680;5.394;2023-09-07T06:10:35;7.50;;;5.07;;
45522;SDS011;31254;51.680;5.394;2023-09-07T06:13:02;9.65;;;5.43;;
45522;SDS011;31254;51.680;5.394;2023-09-07T06:15:30;9.18;;;5.10;;
45522;SDS011;31254;51.680;5.394;2023-09-07T06:17:57;8.27;;;5.50;;
45522;SDS011;31254;51.680;5.394;2023-09-07T06:20:24;7.68;;;5.13;;
45522;SDS011;31254;51.680;5.394;2023-09-07T06:22:51;10.68;;;5.22;;
45522;SDS011;31254;51.680;5.394;2023-09-07T06:25:17;8.02;;;5.32;;
45522;SDS011;31254;51.680;5.394;2023-09-07T06:27:44;9.40;;;5.90;;
45522;SDS011;31254;51.680;5.394;2023-09-07T06:30:11;9.27;;;6.00;;
45522;SDS011;31254;51.680;5.394;2023-09-07T06:32:37;8.98;;;5.75;;
45522;SDS011;31254;51.680;5.394;2023-09-07T06:35:05;9.57;;;5.47;;
45522;SDS011;31254;51.680;5.394;2023-09-07T06:37:32;7.93;;;5.72;;
45522;SDS011;31254;51.680;5.394;2023-09-07T06:39:59;8.45;;;6.05;;
45522;SDS011;31254;51.680;5.394;2023-09-07T06:42:25;9.25;;;5.95;;
45522;SDS011;31254;51.680;5.394;2023-09-07T06:44:52;8.52;;;6.18;;
45522;SDS011;31254;51.680;5.394;2023-09-07T06:47:19;10.93;;;6.18;;
45522;SDS011;31254;51.680;5.394;2023-09-07T06:49:45;7.63;;;5.93;;
45522;SDS011;31254;51.680;5.394;2023-09-07T06:52:12;9.07;;;5.82;;
45522;SDS011;31254;51.680;5.394;2023-09-07T06:54:39;11.20;;;6.03;;
45522;SDS011;31254;51.680;5.394;2023-09-07T06:57:06;10.18;;;6.15;;
45522;SDS011;31254;51.680;5.394;2023-09-07T06:59:36;14.35;;;6.60;;
45522;SDS011;31254;51.680;5.394;2023-09-07T07:02:03;11.57;;;6.43;;
45522;SDS011;31254;51.680;5.394;2023-09-07T07:04:31;8.45;;;6.28;;
45522;SDS011;31254;51.680;5.394;2023-09-07T07:06:58;9.32;;;6.07;;
45522;SDS011;31254;51.680;5.394;2023-09-07T07:09:27;11.70;;;6.53;;
45522;SDS011;31254;51.680;5.394;2023-09-07T07:11:54;8.20;;;5.85;;
45522;SDS011;31254;51.680;5.394;2023-09-07T07:14:21;10.57;;;5.95;;
45522;SDS011;31254;51.680;5.394;2023-09-07T07:16:48;8.43;;;5.90;;
45522;SDS011;31254;51.680;5.394;2023-09-07T07:19:14;8.35;;;5.43;;
45522;SDS011;31254;51.680;5.394;2023-09-07T07:21:41;7.05;;;5.88;;
45522;SDS011;31254;51.680;5.394;2023-09-07T07:24:08;10.52;;;6.00;;
45522;SDS011;31254;51.680;5.394;2023-09-07T07:26:35;10.07;;;5.88;;
45522;SDS011;31254;51.680;5.394;2023-09-07T07:29:02;9.25;;;6.05;;
45522;SDS011;31254;51.680;5.394;2023-09-07T07:31:31;11.60;;;5.88;;
45522;SDS011;31254;51.680;5.394;2023-09-07T07:33:58;8.35;;;5.85;;
45522;SDS011;31254;51.680;5.394;2023-09-07T07:36:25;12.90;;;6.65;;
45522;SDS011;31254;51.680;5.394;2023-09-07T07:38:52;10.05;;;6.50;;
45522;SDS011;31254;51.680;5.394;2023-09-07T07:41:18;11.63;;;6.70;;
45522;SDS011;31254;51.680;5.394;2023-09-07T07:43:45;9.50;;;6.18;;
45522;SDS011;31254;51.680;5.394;2023-09-07T07:46:12;8.45;;;5.70;;
45522;SDS011;31254;51.680;5.394;2023-09-07T07:48:42;9.20;;;6.25;;
45522;SDS011;31254;51.680;5.394;2023-09-07T07:51:08;9.18;;;5.68;;
45522;SDS011;31254;51.680;5.394;2023-09-07T07:53:37;9.27;;;5.60;;
45522;SDS011;31254;51.680;5.394;2023-09-07T07:56:04;10.07;;;5.80;;
45522;SDS011;31254;51.680;5.394;2023-09-07T07:58:31;8.60;;;5.35;;
45522;SDS011;31254;51.680;5.394;2023-09-07T08:00:58;9.93;;;6.10;;
45522;SDS011;31254;51.680;5.394;2023-09-07T08:03:25;9.38;;;5.90;;
45522;SDS011;31254;51.680;5.394;2023-09-07T08:05:52;8.98;;;5.82;;
45522;SDS011;31254;51.680;5.394;2023-09-07T08:08:18;7.70;;;5.50;;
45522;SDS011;31254;51.680;5.394;2023-09-07T08:10:45;6.90;;;5.30;;
45522;SDS011;31254;51.680;5.394;2023-09-07T08:13:12;7.93;;;5.70;;
45522;SDS011;31254;51.680;5.394;2023-09-07T08:15:40;10.75;;;5.60;;
45522;SDS011;31254;51.680;5.394;2023-09-07T08:18:06;7.45;;;5.70;;
45522;SDS011;31254;51.680;5.394;2023-09-07T08:20:35;8.23;;;5.28;;
45522;SDS011;31254;51.680;5.394;2023-09-07T08:23:02;9.07;;;5.70;;
45522;SDS011;31254;51.680;5.394;2023-09-07T08:25:33;7.18;;;5.57;;
45522;SDS011;31254;51.680;5.394;2023-09-07T08:28:00;8.18;;;5.25;;
45522;SDS011;31254;51.680;5.394;2023-09-07T08:30:32;7.45;;;5.72;;
45522;SDS011;31254;51.680;5.394;2023-09-07T08:33:00;7.25;;;5.00;;
45522;SDS011;31254;51.680;5.394;2023-09-07T08:35:29;10.05;;;5.35;;
45522;SDS011;31254;51.680;5.394;2023-09-07T08:37:56;7.97;;;5.38;;
45522;SDS011;31254;51.680;5.394;2023-09-07T08:40:25;8.23;;;5.72;;
45522;SDS011;31254;51.680;5.394;2023-09-07T08:42:53;8.75;;;6.18;;
45522;SDS011;31254;51.680;5.394;2023-09-07T08:45:23;8.98;;;5.25;;
45522;SDS011;31254;51.680;5.394;2023-09-07T08:47:52;9.82;;;5.72;;
45522;SDS011;31254;51.680;5.394;2023-09-07T08:50:21;8.45;;;4.90;;
45522;SDS011;31254;51.680;5.394;2023-09-07T08:52:51;8.55;;;5.05;;
45522;SDS011;31254;51.680;5.394;2023-09-07T08:55:19;6.85;;;4.90;;
45522;SDS011;31254;51.680;5.394;2023-09-07T08:57:47;6.88;;;4.75;;
45522;SDS011;31254;51.680;5.394;2023-09-07T09:00:14;6.32;;;4.85;;
45522;SDS011;31254;51.680;5.394;2023-09-07T09:02:43;9.90;;;5.03;;
45522;SDS011;31254;51.680;5.394;2023-09-07T09:05:22;6.78;;;4.88;;
45522;SDS011;31254;51.680;5.394;2023-09-07T09:07:49;6.93;;;4.60;;
45522;SDS011;31254;51.680;5.394;2023-09-07T09:10:27;5.93;;;4.63;;
45522;SDS011;31254;51.680;5.394;2023-09-07T09:12:53;5.65;;;4.45;;
45522;SDS011;31254;51.680;5.394;2023-09-07T09:15:21;5.25;;;4.07;;
45522;SDS011;31254;51.680;5.394;2023-09-07T09:17:48;6.40;;;4.75;;
45522;SDS011;31254;51.680;5.394;2023-09-07T09:20:24;6.63;;;4.25;;
45522;SDS011;31254;51.680;5.394;2023-09-07T09:22:53;6.35;;;4.25;;
45522;SDS011;31254;51.680;5.394;2023-09-07T09:25:21;8.18;;;4.65;;
45522;SDS011;31254;51.680;5.394;2023-09-07T09:27:48;7.72;;;4.63;;
45522;SDS011;31254;51.680;5.394;2023-09-07T09:30:14;6.45;;;4.10;;
45522;SDS011;31254;51.680;5.394;2023-09-07T09:32:42;5.50;;;4.00;;
45522;SDS011;31254;51.680;5.394;2023-09-07T09:35:10;5.18;;;3.85;;
45522;SDS011;31254;51.680;5.394;2023-09-07T09:37:43;6.07;;;4.40;;
45522;SDS011;31254;51.680;5.394;2023-09-07T09:40:15;6.10;;;4.25;;
45522;SDS011;31254;51.680;5.394;2023-09-07T09:42:43;6.03;;;4.00;;
45522;SDS011;31254;51.680;5.394;2023-09-07T09:45:11;6.75;;;4.05;;
45522;SDS011;31254;51.680;5.394;2023-09-07T09:47:39;6.88;;;4.05;;
45522;SDS011;31254;51.680;5.394;2023-09-07T09:50:08;6.97;;;3.90;;
45522;SDS011;31254;51.680;5.394;2023-09-07T09:52:37;5.45;;;3.88;;
45522;SDS011;31254;51.680;5.394;2023-09-07T09:55:05;9.20;;;4.25;;
45522;SDS011;31254;51.680;5.394;2023-09-07T09:57:35;6.35;;;3.88;;
45522;SDS011;31254;51.680;5.394;2023-09-07T10:00:05;6.78;;;4.13;;
45522;SDS011;31254;51.680;5.394;2023-09-07T10:05:29;5.97;;;4.22;;
45522;SDS011;31254;51.680;5.394;2023-09-07T10:08:02;8.40;;;3.88;;
45522;SDS011;31254;51.680;5.394;2023-09-07T10:10:33;4.90;;;3.80;;
45522;SDS011;31254;51.680;5.394;2023-09-07T10:13:02;8.63;;;4.70;;
45522;SDS011;31254;51.680;5.394;2023-09-07T10:15:32;4.82;;;4.05;;
45522;SDS011;31254;51.680;5.394;2023-09-07T10:18:03;5.85;;;4.32;;
45522;SDS011;31254;51.680;5.394;2023-09-07T10:23:46;6.35;;;3.85;;
45522;SDS011;31254;51.680;5.394;2023-09-07T10:26:16;6.03;;;3.85;;
45522;SDS011;31254;51.680;5.394;2023-09-07T10:28:44;5.88;;;3.85;;
45522;SDS011;31254;51.680;5.394;2023-09-07T10:33:42;9.18;;;4.00;;
45522;SDS011;31254;51.680;5.394;2023-09-07T10:36:20;6.22;;;4.00;;
45522;SDS011;31254;51.680;5.394;2023-09-07T10:38:51;5.25;;;3.63;;
45522;SDS011;31254;51.680;5.394;2023-09-07T10:41:21;10.35;;;3.85;;
45522;SDS011;31254;51.680;5.394;2023-09-07T10:43:52;4.68;;;3.42;;
45522;SDS011;31254;51.680;5.394;2023-09-07T10:46:22;6.78;;;3.72;;
45522;SDS011;31254;51.680;5.394;2023-09-07T10:48:53;5.40;;;3.38;;
45522;SDS011;31254;51.680;5.394;2023-09-07T10:51:22;9.10;;;3.55;;
45522;SDS011;31254;51.680;5.394;2023-09-07T10:53:49;5.88;;;3.47;;
45522;SDS011;31254;51.680;5.394;2023-09-07T10:56:16;4.78;;;3.53;;
45522;SDS011;31254;51.680;5.394;2023-09-07T11:01:46;8.32;;;3.63;;
45522;SDS011;31254;51.680;5.394;2023-09-07T11:04:17;5.88;;;3.72;;
45522;SDS011;31254;51.680;5.394;2023-09-07T11:06:44;6.05;;;3.85;;
45522;SDS011;31254;51.680;5.394;2023-09-07T11:09:11;7.15;;;3.63;;
45522;SDS011;31254;51.680;5.394;2023-09-07T11:11:38;8.23;;;3.75;;
45522;SDS011;31254;51.680;5.394;2023-09-07T11:14:05;6.25;;;3.50;;
45522;SDS011;31254;51.680;5.394;2023-09-07T11:16:33;8.80;;;3.72;;
45522;SDS011;31254;51.680;5.394;2023-09-07T11:19:04;6.00;;;3.58;;
45522;SDS011;31254;51.680;5.394;2023-09-07T11:21:31;6.68;;;3.53;;
45522;SDS011;31254;51.680;5.394;2023-09-07T11:24:01;6.15;;;3.38;;
45522;SDS011;31254;51.680;5.394;2023-09-07T11:26:40;5.13;;;3.58;;
45522;SDS011;31254;51.680;5.394;2023-09-07T11:29:09;6.18;;;3.60;;
45522;SDS011;31254;51.680;5.394;2023-09-07T11:31:36;6.03;;;4.10;;
45522;SDS011;31254;51.680;5.394;2023-09-07T11:34:03;4.82;;;3.28;;
45522;SDS011;31254;51.680;5.394;2023-09-07T11:36:36;8.15;;;3.30;;
45522;SDS011;31254;51.680;5.394;2023-09-07T11:39:03;4.85;;;3.30;;
45522;SDS011;31254;51.680;5.394;2023-09-07T11:41:42;7.53;;;3.58;;
45522;SDS011;31254;51.680;5.394;2023-09-07T11:44:11;5.97;;;3.08;;
45522;SDS011;31254;51.680;5.394;2023-09-07T11:46:39;4.45;;;3.17;;
45522;SDS011;31254;51.680;5.394;2023-09-07T11:49:06;4.95;;;3.20;;
45522;SDS011;31254;51.680;5.394;2023-09-07T11:51:33;6.45;;;3.05;;
45522;SDS011;31254;51.680;5.394;2023-09-07T11:54:01;3.80;;;2.90;;
45522;SDS011;31254;51.680;5.394;2023-09-07T11:56:28;4.75;;;2.83;;
45522;SDS011;31254;51.680;5.394;2023-09-07T11:59:09;4.55;;;2.92;;
45522;SDS011;31254;51.680;5.394;2023-09-07T12:01:36;4.57;;;3.17;;
45522;SDS011;31254;51.680;5.394;2023-09-07T12:04:03;4.25;;;3.22;;
45522;SDS011;31254;51.680;5.394;2023-09-07T12:06:31;3.75;;;2.80;;
45522;SDS011;31254;51.680;5.394;2023-09-07T12:09:02;4.93;;;2.88;;
45522;SDS011;31254;51.680;5.394;2023-09-07T12:11:30;4.47;;;2.75;;
45522;SDS011;31254;51.680;5.394;2023-09-07T12:13:57;3.50;;;2.60;;
45522;SDS011;31254;51.680;5.394;2023-09-07T12:16:25;4.47;;;3.30;;
45522;SDS011;31254;51.680;5.394;2023-09-07T12:18:52;3.67;;;3.10;;
45522;SDS011;31254;51.680;5.394;2023-09-07T12:21:20;3.45;;;2.92;;
45522;SDS011;31254;51.680;5.394;2023-09-07T12:23:47;4.70;;;3.17;;
45522;SDS011;31254;51.680;5.394;2023-09-07T12:26:14;4.47;;;2.60;;
45522;SDS011;31254;51.680;5.394;2023-09-07T12:28:43;4.53;;;3.17;;
45522;SDS011;31254;51.680;5.394;2023-09-07T12:31:11;3.53;;;2.72;;
45522;SDS011;31254;51.680;5.394;2023-09-07T12:33:39;3.78;;;2.80;;
45522;SDS011;31254;51.680;5.394;2023-09-07T12:36:06;6.40;;;3.20;;
45522;SDS011;31254;51.680;5.394;2023-09-07T12:38:36;4.50;;;3.28;;
45522;SDS011;31254;51.680;5.394;2023-09-07T12:41:03;6.80;;;3.28;;
45522;SDS011;31254;51.680;5.394;2023-09-07T12:43:30;7.70;;;3.47;;
45522;SDS011;31254;51.680;5.394;2023-09-07T12:45:57;4.28;;;3.17;;
45522;SDS011;31254;51.680;5.394;2023-09-07T12:48:25;4.90;;;3.60;;
45522;SDS011;31254;51.680;5.394;2023-09-07T12:50:53;5.95;;;3.67;;
45522;SDS011;31254;51.680;5.394;2023-09-07T12:53:20;10.27;;;3.63;;
45522;SDS011;31254;51.680;5.394;2023-09-07T12:55:52;7.10;;;3.90;;
45522;SDS011;31254;51.680;5.394;2023-09-07T12:58:20;6.32;;;3.28;;
45522;SDS011;31254;51.680;5.394;2023-09-07T13:00:46;5.55;;;3.63;;
45522;SDS011;31254;51.680;5.394;2023-09-07T13:03:17;5.68;;;3.70;;
45522;SDS011;31254;51.680;5.394;2023-09-07T13:05:52;5.25;;;3.65;;
45522;SDS011;31254;51.680;5.394;2023-09-07T13:08:18;7.13;;;3.80;;
45522;SDS011;31254;51.680;5.394;2023-09-07T13:10:46;5.85;;;3.80;;
45522;SDS011;31254;51.680;5.394;2023-09-07T13:13:13;12.10;;;3.88;;
45522;SDS011;31254;51.680;5.394;2023-09-07T13:15:40;5.63;;;3.45;;
45522;SDS011;31254;51.680;5.394;2023-09-07T13:18:07;7.18;;;3.42;;
45522;SDS011;31254;51.680;5.394;2023-09-07T13:20:33;9.73;;;3.60;;
45522;SDS011;31254;51.680;5.394;2023-09-07T13:23:00;5.82;;;3.58;;
45522;SDS011;31254;51.680;5.394;2023-09-07T13:25:26;6.93;;;3.83;;
45522;SDS011;31254;51.680;5.394;2023-09-07T13:27:54;5.50;;;3.80;;
45522;SDS011;31254;51.680;5.394;2023-09-07T13:30:20;7.85;;;3.60;;
45522;SDS011;31254;51.680;5.394;2023-09-07T13:32:47;8.95;;;3.40;;
45522;SDS011;31254;51.680;5.394;2023-09-07T13:35:16;4.72;;;3.60;;
45522;SDS011;31254;51.680;5.394;2023-09-07T13:37:42;8.20;;;3.60;;
45522;SDS011;31254;51.680;5.394;2023-09-07T13:40:09;6.50;;;3.47;;
45522;SDS011;31254;51.680;5.394;2023-09-07T13:42:36;4.70;;;3.38;;
45522;SDS011;31254;51.680;5.394;2023-09-07T13:45:05;6.25;;;3.42;;
45522;SDS011;31254;51.680;5.394;2023-09-07T13:47:32;4.32;;;3.22;;
45522;SDS011;31254;51.680;5.394;2023-09-07T13:49:59;8.90;;;3.65;;
45522;SDS011;31254;51.680;5.394;2023-09-07T13:52:25;5.60;;;3.55;;
45522;SDS011;31254;51.680;5.394;2023-09-07T13:54:52;4.07;;;3.35;;
45522;SDS011;31254;51.680;5.394;2023-09-07T13:57:19;5.28;;;3.45;;
45522;SDS011;31254;51.680;5.394;2023-09-07T13:59:47;5.22;;;3.67;;
45522;SDS011;31254;51.680;5.394;2023-09-07T14:02:14;3.88;;;3.13;;
45522;SDS011;31254;51.680;5.394;2023-09-07T14:04:40;7.07;;;3.42;;
45522;SDS011;31254;51.680;5.394;2023-09-07T14:07:07;4.90;;;3.33;;
45522;SDS011;31254;51.680;5.394;2023-09-07T14:09:34;8.38;;;3.40;;
45522;SDS011;31254;51.680;5.394;2023-09-07T14:12:01;6.55;;;3.22;;
45522;SDS011;31254;51.680;5.394;2023-09-07T14:14:27;7.43;;;3.38;;
45522;SDS011;31254;51.680;5.394;2023-09-07T14:16:54;4.25;;;3.38;;
45522;SDS011;31254;51.680;5.394;2023-09-07T14:19:23;5.35;;;3.30;;
45522;SDS011;31254;51.680;5.394;2023-09-07T14:21:53;4.88;;;3.20;;
45522;SDS011;31254;51.680;5.394;2023-09-07T14:24:19;7.22;;;3.60;;
45522;SDS011;31254;51.680;5.394;2023-09-07T14:26:46;5.25;;;3.38;;
45522;SDS011;31254;51.680;5.394;2023-09-07T14:29:13;3.65;;;3.15;;
45522;SDS011;31254;51.680;5.394;2023-09-07T14:31:39;6.90;;;3.55;;
45522;SDS011;31254;51.680;5.394;2023-09-07T14:34:08;6.72;;;3.60;;
45522;SDS011;31254;51.680;5.394;2023-09-07T14:36:37;8.63;;;4.03;;
45522;SDS011;31254;51.680;5.394;2023-09-07T14:39:06;6.00;;;3.55;;
45522;SDS011;31254;51.680;5.394;2023-09-07T14:41:35;9.20;;;3.65;;
45522;SDS011;31254;51.680;5.394;2023-09-07T14:44:02;10.20;;;3.33;;
45522;SDS011;31254;51.680;5.394;2023-09-07T14:46:28;4.13;;;3.50;;
45522;SDS011;31254;51.680;5.394;2023-09-07T14:48:56;7.07;;;3.78;;
45522;SDS011;31254;51.680;5.394;2023-09-07T14:51:23;6.22;;;3.80;;
45522;SDS011;31254;51.680;5.394;2023-09-07T14:53:51;4.38;;;3.65;;
45522;SDS011;31254;51.680;5.394;2023-09-07T14:56:18;7.78;;;3.72;;
45522;SDS011;31254;51.680;5.394;2023-09-07T14:58:45;6.85;;;3.30;;
45522;SDS011;31254;51.680;5.394;2023-09-07T15:01:11;4.65;;;3.42;;
45522;SDS011;31254;51.680;5.394;2023-09-07T15:03:38;6.57;;;3.50;;
45522;SDS011;31254;51.680;5.394;2023-09-07T15:06:06;5.22;;;3.40;;
45522;SDS011;31254;51.680;5.394;2023-09-07T15:08:33;4.78;;;3.40;;
45522;SDS011;31254;51.680;5.394;2023-09-07T15:11:01;4.50;;;3.25;;
45522;SDS011;31254;51.680;5.394;2023-09-07T15:13:28;8.48;;;3.53;;
45522;SDS011;31254;51.680;5.394;2023-09-07T15:15:55;9.88;;;3.35;;
45522;SDS011;31254;51.680;5.394;2023-09-07T15:18:22;5.78;;;3.70;;
45522;SDS011;31254;51.680;5.394;2023-09-07T15:20:49;10.63;;;4.10;;
45522;SDS011;31254;51.680;5.394;2023-09-07T15:23:18;7.05;;;3.40;;
45522;SDS011;31254;51.680;5.394;2023-09-07T15:25:44;4.88;;;3.53;;
45522;SDS011;31254;51.680;5.394;2023-09-07T15:28:11;4.60;;;3.22;;